createdAt,value
2022-09-18T00:01:46.302Z,8.80
2022-09-18T00:06:48.084Z,8.80
2022-09-18T00:11:51.173Z,8.90
2022-09-18T00:16:53.149Z,8.90
2022-09-18T00:21:55.331Z,9.00
2022-09-18T00:26:57.170Z,9.00
2022-09-18T00:31:59.887Z,8.90
2022-09-18T00:37:01.619Z,8.90
2022-09-18T00:42:03.534Z,8.90
2022-09-18T00:47:10.863Z,8.90
2022-09-18T00:52:15.496Z,8.90
2022-09-18T00:57:24.913Z,8.90
2022-09-18T01:02:26.801Z,8.90
2022-09-18T01:07:52.943Z,8.90
2022-09-18T01:13:22.342Z,8.90
2022-09-18T01:18:36.357Z,8.80
2022-09-18T01:24:26.348Z,8.80
2022-09-18T01:29:55.263Z,8.80
2022-09-18T01:35:40.423Z,8.90
2022-09-18T01:41:00.286Z,8.90
2022-09-18T01:46:08.465Z,8.80
2022-09-18T01:51:36.901Z,8.80
2022-09-18T01:56:57.133Z,8.80
2022-09-18T02:02:05.079Z,8.90
2022-09-18T02:07:28.730Z,8.80
2022-09-18T02:12:34.382Z,8.90
2022-09-18T02:17:43.996Z,8.90
2022-09-18T02:22:47.476Z,8.80
2022-09-18T02:27:50.620Z,8.80
2022-09-18T02:32:56.686Z,8.80
2022-09-18T02:38:11.533Z,8.80
2022-09-18T02:43:37.922Z,8.90
2022-09-18T02:49:25.147Z,8.80
2022-09-18T02:54:32.665Z,8.70
2022-09-18T02:59:54.829Z,8.70
2022-09-18T03:04:56.728Z,8.70
2022-09-18T03:10:11.510Z,8.70
2022-09-18T03:15:13.439Z,8.80
2022-09-18T03:20:15.360Z,8.80
2022-09-18T03:25:17.167Z,8.80
2022-09-18T03:30:18.913Z,8.80
2022-09-18T03:35:20.795Z,8.70
2022-09-18T03:40:23.322Z,8.70
2022-09-18T03:45:25.295Z,8.80
2022-09-18T03:50:27.974Z,8.70
2022-09-18T03:55:30.962Z,8.70
2022-09-18T04:00:53.018Z,8.70
2022-09-18T04:06:05.554Z,8.70
2022-09-18T04:11:42.915Z,8.80
2022-09-18T04:16:44.761Z,8.70
2022-09-18T04:21:46.610Z,8.70
2022-09-18T04:26:50.033Z,8.70
2022-09-18T04:31:54.728Z,8.70
2022-09-18T04:36:58.075Z,8.70
2022-09-18T04:42:02.705Z,8.70
2022-09-18T04:47:06.095Z,8.70
2022-09-18T04:52:07.991Z,8.70
2022-09-18T04:57:09.766Z,8.60
2022-09-18T05:02:11.746Z,8.70
2022-09-18T05:07:14.003Z,8.70
2022-09-18T05:12:16.487Z,8.70
2022-09-18T05:17:20.112Z,8.70
2022-09-18T05:22:35.112Z,8.70
2022-09-18T05:27:38.722Z,8.80
2022-09-18T05:32:42.151Z,8.80
2022-09-18T05:37:43.927Z,8.80
2022-09-18T05:42:48.007Z,8.80
2022-09-18T05:47:59.312Z,8.80
2022-09-18T05:53:10.835Z,8.70
2022-09-18T05:58:34.348Z,8.90
2022-09-18T06:03:37.018Z,8.90
2022-09-18T06:08:38.965Z,8.90
2022-09-18T06:13:41.199Z,8.90
2022-09-18T06:18:42.981Z,8.90
2022-09-18T06:23:44.724Z,8.90
2022-09-18T06:28:54.279Z,8.90
2022-09-18T06:33:56.993Z,8.90
2022-09-18T06:38:59.189Z,8.90
2022-09-18T06:44:01.576Z,9.00
2022-09-18T06:49:09.707Z,9.10
2022-09-18T06:54:17.604Z,9.10
2022-09-18T06:59:19.495Z,9.10
2022-09-18T07:04:21.358Z,9.10
2022-09-18T07:09:23.210Z,9.10
2022-09-18T07:14:27.921Z,9.10
2022-09-18T07:19:36.903Z,9.10
2022-09-18T07:24:39.256Z,9.20
2022-09-18T07:29:41.909Z,9.20
2022-09-18T07:34:45.328Z,9.30
2022-09-18T07:39:53.255Z,9.40
2022-09-18T07:45:13.771Z,9.30
2022-09-18T07:50:16.830Z,9.40
2022-09-18T07:55:20.627Z,9.50
2022-09-18T08:00:22.686Z,9.60
2022-09-18T08:05:26.103Z,9.70
2022-09-18T08:10:34.704Z,9.60
2022-09-18T08:15:59.624Z,9.70
2022-09-18T08:21:21.383Z,9.70
2022-09-18T08:26:26.328Z,9.70
2022-09-18T08:31:29.390Z,9.60
2022-09-18T08:36:32.656Z,9.60
2022-09-18T08:42:05.873Z,9.50
2022-09-18T08:47:15.049Z,9.50
2022-09-18T08:52:20.956Z,9.50
2022-09-18T08:57:41.842Z,9.50
2022-09-18T09:02:52.040Z,9.50
2022-09-18T09:08:12.926Z,9.50
2022-09-18T09:13:28.083Z,9.50
2022-09-18T09:18:48.908Z,9.50
2022-09-18T09:24:13.404Z,9.50
2022-09-18T09:29:42.271Z,9.60
2022-09-18T09:35:23.183Z,9.60
2022-09-18T09:40:47.553Z,9.60
2022-09-18T09:45:52.295Z,9.50
2022-09-18T09:51:14.074Z,9.50
2022-09-18T09:56:57.646Z,9.50
2022-09-18T10:02:14.424Z,9.50
2022-09-18T10:07:28.489Z,9.60
2022-09-18T10:12:53.334Z,9.60
2022-09-18T10:17:59.623Z,9.60
2022-09-18T10:23:39.575Z,9.60
2022-09-18T10:28:42.382Z,9.70
2022-09-18T10:33:46.749Z,9.60
2022-09-18T10:38:59.205Z,9.70
2022-09-18T10:44:28.042Z,9.70
2022-09-18T10:50:02.249Z,9.70
2022-09-18T10:55:07.519Z,9.90
2022-09-18T11:00:13.848Z,10.00
2022-09-18T11:05:28.033Z,10.00
2022-09-18T11:10:33.044Z,10.00
2022-09-18T11:15:36.913Z,10.00
2022-09-18T11:20:43.710Z,10.10
2022-09-18T11:26:08.464Z,10.20
2022-09-18T11:31:18.489Z,10.20
2022-09-18T11:36:31.740Z,10.20
2022-09-18T11:41:38.676Z,10.20
2022-09-18T11:46:40.659Z,10.30
2022-09-18T11:51:55.649Z,10.30
2022-09-18T11:57:10.527Z,10.30
2022-09-18T12:02:44.669Z,10.30
2022-09-18T12:07:51.315Z,10.20
2022-09-18T12:13:13.599Z,10.30
2022-09-18T12:18:24.740Z,10.30
2022-09-18T12:23:29.083Z,10.30
2022-09-18T12:29:26.550Z,10.40
2022-09-18T12:35:02.747Z,10.40
2022-09-18T12:40:22.717Z,10.40
2022-09-18T12:45:30.520Z,10.40
2022-09-18T12:50:53.784Z,10.50
2022-09-18T12:56:32.144Z,10.60
2022-09-18T13:01:45.938Z,10.70
2022-09-18T13:07:16.027Z,10.50
2022-09-18T13:12:32.134Z,10.50
2022-09-18T13:17:44.140Z,10.50
2022-09-18T13:22:50.873Z,10.40
2022-09-18T13:27:56.475Z,10.40
2022-09-18T13:32:59.740Z,10.50
2022-09-18T13:38:19.967Z,10.50
2022-09-18T13:43:27.685Z,10.50
2022-09-18T13:48:44.766Z,10.40
2022-09-18T13:53:46.875Z,10.50
2022-09-18T13:58:50.111Z,10.40
2022-09-18T14:03:51.912Z,10.50
2022-09-18T14:09:07.873Z,10.50
2022-09-18T14:14:22.647Z,10.50
2022-09-18T14:19:33.142Z,10.50
2022-09-18T14:24:55.759Z,10.50
2022-09-18T14:30:03.494Z,10.50
2022-09-18T14:35:25.674Z,10.40
2022-09-18T14:40:28.909Z,10.40
2022-09-18T14:45:31.792Z,10.50
2022-09-18T14:50:37.878Z,10.50
2022-09-18T14:55:41.974Z,10.50
2022-09-18T15:00:45.343Z,10.50
2022-09-18T15:05:52.023Z,10.40
2022-09-18T15:10:56.482Z,10.60
2022-09-18T15:16:01.476Z,10.50
2022-09-18T15:21:03.476Z,10.40
2022-09-18T15:26:12.452Z,10.50
2022-09-18T15:31:17.653Z,10.40
2022-09-18T15:36:36.161Z,10.40
2022-09-18T15:41:39.513Z,10.40
2022-09-18T15:46:41.379Z,10.40
2022-09-18T15:51:43.459Z,10.40
2022-09-18T15:57:01.499Z,10.40
2022-09-18T16:02:19.560Z,10.40
2022-09-18T16:07:27.063Z,10.40
2022-09-18T16:12:29.883Z,10.40
2022-09-18T16:17:37.213Z,10.40
2022-09-18T16:22:40.857Z,10.40
2022-09-18T16:27:47.549Z,10.30
2022-09-18T16:32:49.487Z,10.30
2022-09-18T16:37:52.602Z,10.30
2022-09-18T16:42:58.227Z,10.30
2022-09-18T16:48:00.822Z,10.30
2022-09-18T16:53:03.169Z,10.20
2022-09-18T16:58:07.059Z,10.20
2022-09-18T17:03:09.074Z,10.10
2022-09-18T17:08:11.198Z,10.20
2022-09-18T17:13:14.214Z,10.20
2022-09-18T17:18:17.207Z,10.20
2022-09-18T17:23:19.027Z,10.10
2022-09-18T17:28:21.012Z,10.10
2022-09-18T17:33:23.200Z,10.10
2022-09-18T17:38:25.127Z,10.00
2022-09-18T17:43:27.975Z,10.00
2022-09-18T17:48:31.218Z,10.00
2022-09-18T17:53:33.697Z,10.10
2022-09-18T17:58:40.001Z,10.10
2022-09-18T18:03:41.877Z,10.00
2022-09-18T18:08:43.915Z,9.90
2022-09-18T18:13:47.673Z,9.90
2022-09-18T18:18:53.519Z,10.00
2022-09-18T18:24:01.211Z,10.00
2022-09-18T18:29:03.678Z,9.90
2022-09-18T18:34:05.437Z,9.90
2022-09-18T18:39:12.081Z,9.90
2022-09-18T18:44:14.439Z,9.90
2022-09-18T18:49:17.960Z,9.80
2022-09-18T18:54:21.751Z,9.80
2022-09-18T18:59:25.515Z,9.80
2022-09-18T19:04:27.743Z,9.80
2022-09-18T19:09:30.516Z,9.80
2022-09-18T19:14:33.439Z,9.80
2022-09-18T19:19:35.431Z,9.80
2022-09-18T19:24:37.155Z,9.80
2022-09-18T19:29:39.466Z,9.70
2022-09-18T19:34:41.310Z,9.70
2022-09-18T19:39:47.242Z,9.80
2022-09-18T19:45:00.410Z,9.70
2022-09-18T19:50:05.343Z,9.80
2022-09-18T19:55:14.928Z,9.70
2022-09-18T20:00:16.906Z,9.70
2022-09-18T20:05:20.823Z,9.70
2022-09-18T20:10:23.792Z,9.70
2022-09-18T20:15:26.064Z,9.70
2022-09-18T20:20:28.331Z,9.80
2022-09-18T20:25:30.087Z,9.70
2022-09-18T20:30:32.047Z,9.70
2022-09-18T20:35:37.395Z,9.60
2022-09-18T20:40:39.385Z,9.60
2022-09-18T20:45:41.224Z,9.60
2022-09-18T20:50:43.964Z,9.60
2022-09-18T20:55:46.630Z,9.50
2022-09-18T21:00:48.486Z,9.40
2022-09-18T21:06:02.710Z,9.40
2022-09-18T21:11:17.530Z,9.40
2022-09-18T21:16:21.624Z,9.50
2022-09-18T21:21:25.244Z,9.40
2022-09-18T21:26:35.940Z,9.40
2022-09-18T21:31:42.181Z,9.40
2022-09-18T21:36:44.845Z,9.40
2022-09-18T21:41:47.518Z,9.30
2022-09-18T21:46:50.187Z,9.30
2022-09-18T21:51:55.554Z,9.20
2022-09-18T21:56:57.562Z,9.10
2022-09-18T22:02:00.846Z,9.20
2022-09-18T22:07:02.996Z,9.10
2022-09-18T22:12:06.792Z,9.10
2022-09-18T22:17:10.269Z,9.10
2022-09-18T22:22:12.059Z,9.10
2022-09-18T22:27:14.041Z,9.10
2022-09-18T22:32:16.087Z,9.10
2022-09-18T22:37:17.973Z,9.00
2022-09-18T22:42:20.051Z,9.00
2022-09-18T22:47:21.881Z,8.90
2022-09-18T22:52:23.667Z,8.90
2022-09-18T22:57:25.398Z,9.00
2022-09-18T23:02:27.167Z,8.80
2022-09-18T23:07:29.338Z,8.60
2022-09-18T23:12:31.054Z,8.30
2022-09-18T23:17:32.804Z,8.20
2022-09-18T23:22:34.527Z,8.10
2022-09-18T23:27:36.254Z,8.00
2022-09-18T23:32:37.994Z,8.00
2022-09-18T23:37:39.810Z,8.00
2022-09-18T23:42:41.646Z,8.00
2022-09-18T23:47:43.376Z,7.90
2022-09-18T23:52:45.148Z,7.70
2022-09-18T23:57:46.874Z,7.70
